Terminal Aerodrome Forecast
Issued by NWS Sterling, VA

Current Version | Previous Version | Text Only | Print | Product List | Glossary Off
Versions: 1 2 3 4 5 6 7 8 9 10 11 12 13 14 15

000
FTUS41 KLWX 270500
TAFMRB
TAF
KMRB 270520Z 2706/2806 VRB03KT 6SM -SHRA BKN050 OVC130
     FM270900 VRB03KT 5SM BR VCSH BKN050 OVC130
     FM271300 22006KT P6SM VCSH BKN050 BKN130
     FM271600 23006KT P6SM VCTS BKN050CB BKN130
     FM271900 24008KT 5SM SHRA VCTS BKN050CB BKN130
     FM280100 23005KT P6SM BKN050 BKN130=

USA.gov is the U.S. government's official web portal to all federal, state and local government web resources and services.